Time;durP1;ratioP1;P1;durP2;ratioP2;P2;SDS_P1;SDS_P2;PMS_P1;PMS_P2;Temp;Humidity;BMP_temperature;BMP_pressure;BME280_temperature;BME280_humidity;BME280_pressure;Samples;Min_cycle;Max_cycle;Signal;HPM_P1;HPM_P2
2022/09/21 00:00:44;;;;;;;23.17;13.63;;;;;;;;;;3393601;42;20559;-57
2022/09/21 00:03:10;;;;;;;23.00;13.85;;;;;;;;;;3392858;42;20679;-58
2022/09/21 00:05:36;;;;;;;24.90;13.83;;;;;;;;;;3382691;42;20142;-59
2022/09/21 00:08:05;;;;;;;25.20;13.63;;;;;;;;;;3392822;42;20351;-60
2022/09/21 00:10:32;;;;;;;24.38;13.52;;;;;;;;;;3383907;42;20093;-59
2022/09/21 00:12:58;;;;;;;25.60;13.90;;;;;;;;;;3392552;42;20097;-58
2022/09/21 00:15:24;;;;;;;26.52;14.00;;;;;;;;;;3393082;42;20481;-60
2022/09/21 00:17:53;;;;;;;24.58;13.55;;;;;;;;;;3392968;42;20095;-57
2022/09/21 00:20:20;;;;;;;26.83;14.70;;;;;;;;;;3394595;42;20133;-57
2022/09/21 00:22:49;;;;;;;24.60;14.00;;;;;;;;;;3374392;42;20146;-58
2022/09/21 00:25:15;;;;;;;27.35;14.00;;;;;;;;;;3382561;42;20508;-58
2022/09/21 00:27:41;;;;;;;24.05;13.50;;;;;;;;;;3394522;42;20524;-59
2022/09/21 00:30:08;;;;;;;21.03;11.80;;;;;;;;;;3394782;42;20591;-56
2022/09/21 00:32:35;;;;;;;22.37;12.43;;;;;;;;;;3385135;42;20750;-58
2022/09/21 00:35:02;;;;;;;22.42;12.10;;;;;;;;;;3394545;42;20094;-58
2022/09/21 00:37:28;;;;;;;22.13;12.43;;;;;;;;;;3385824;42;20221;-59
2022/09/21 00:39:54;;;;;;;20.17;11.85;;;;;;;;;;3378112;42;20141;-59
2022/09/21 00:42:28;;;;;;;24.02;12.23;;;;;;;;;;3386320;42;20234;-61
2022/09/21 00:44:54;;;;;;;24.03;11.63;;;;;;;;;;3395953;42;20091;-57
2022/09/21 00:47:41;;;;;;;22.92;12.10;;;;;;;;;;3387390;42;20492;-59
2022/09/21 00:50:10;;;;;;;23.27;11.73;;;;;;;;;;3393673;42;20270;-57
2022/09/21 00:52:41;;;;;;;20.73;11.15;;;;;;;;;;3379910;42;20078;-57
2022/09/21 00:55:09;;;;;;;24.10;11.70;;;;;;;;;;3387160;42;20114;-58
2022/09/21 00:57:35;;;;;;;23.20;11.27;;;;;;;;;;3397297;42;20148;-57
2022/09/21 01:00:04;;;;;;;24.42;10.75;;;;;;;;;;3386320;42;20098;-60
2022/09/21 01:02:30;;;;;;;19.85;10.85;;;;;;;;;;3385204;42;20095;-59
2022/09/21 01:04:56;;;;;;;19.70;9.77;;;;;;;;;;3379200;42;20090;-58
2022/09/21 01:07:27;;;;;;;22.27;10.20;;;;;;;;;;3369741;42;20552;-56
2022/09/21 01:09:54;;;;;;;22.55;11.10;;;;;;;;;;3385320;42;20087;-63
2022/09/21 01:12:32;;;;;;;23.42;9.93;;;;;;;;;;3376419;42;20470;-57
2022/09/21 01:15:04;;;;;;;19.65;9.70;;;;;;;;;;3394345;42;20091;-58
2022/09/21 01:18:05;;;;;;;23.45;9.48;;;;;;;;;;3395371;42;20129;-60
2022/09/21 01:20:51;;;;;;;17.07;8.63;;;;;;;;;;3385077;42;20137;-58
2022/09/21 01:23:17;;;;;;;18.75;8.93;;;;;;;;;;3395222;42;20078;-57
2022/09/21 01:26:01;;;;;;;19.95;9.07;;;;;;;;;;3395067;42;20961;-59
2022/09/21 01:28:40;;;;;;;16.75;8.57;;;;;;;;;;3389735;42;20094;-57
2022/09/21 01:31:07;;;;;;;16.98;8.55;;;;;;;;;;3394905;42;20105;-59
2022/09/21 01:33:36;;;;;;;21.40;8.93;;;;;;;;;;3377686;42;20083;-59
2022/09/21 01:36:05;;;;;;;25.33;8.68;;;;;;;;;;3377710;42;20090;-57
2022/09/21 01:38:33;;;;;;;26.58;9.80;;;;;;;;;;3377472;42;20091;-60
2022/09/21 01:41:01;;;;;;;30.90;11.25;;;;;;;;;;3375652;42;20101;-57
2022/09/21 01:43:33;;;;;;;28.55;9.82;;;;;;;;;;3373081;42;20097;-58
2022/09/21 01:46:00;;;;;;;26.00;10.43;;;;;;;;;;3384660;42;20083;-59
2022/09/21 01:48:26;;;;;;;25.25;9.68;;;;;;;;;;3383448;42;20106;-58
2022/09/21 01:50:54;;;;;;;26.13;9.98;;;;;;;;;;3376965;42;20183;-58
2022/09/21 01:53:28;;;;;;;27.33;10.27;;;;;;;;;;3378229;42;20584;-58
2022/09/21 01:56:17;;;;;;;26.60;9.75;;;;;;;;;;3393655;42;20086;-58
2022/09/21 01:59:05;;;;;;;36.60;10.43;;;;;;;;;;3382982;42;20629;-56
2022/09/21 02:01:31;;;;;;;25.75;10.05;;;;;;;;;;3375542;42;20087;-60
2022/09/21 02:03:59;;;;;;;31.13;10.68;;;;;;;;;;3374545;42;20151;-57
2022/09/21 02:06:26;;;;;;;27.02;10.38;;;;;;;;;;3384561;42;20557;-58
2022/09/21 02:08:52;;;;;;;20.90;9.55;;;;;;;;;;3377309;42;21091;-60
2022/09/21 02:11:18;;;;;;;25.33;10.97;;;;;;;;;;3384540;42;20098;-58
2022/09/21 02:13:45;;;;;;;23.58;10.50;;;;;;;;;;3393553;42;20146;-57
2022/09/21 02:16:20;;;;;;;26.88;10.70;;;;;;;;;;3384829;42;20094;-58
2022/09/21 02:18:58;;;;;;;38.65;11.77;;;;;;;;;;3394564;42;20098;-61
2022/09/21 02:21:33;;;;;;;38.15;11.95;;;;;;;;;;3394772;42;20552;-60
2022/09/21 02:24:20;;;;;;;32.93;12.07;;;;;;;;;;3384195;42;20090;-58
2022/09/21 02:26:54;;;;;;;29.80;10.80;;;;;;;;;;3394520;42;20565;-58
2022/09/21 02:29:31;;;;;;;37.13;10.52;;;;;;;;;;3384278;42;20103;-58
2022/09/21 02:32:06;;;;;;;30.58;10.55;;;;;;;;;;3384513;42;20082;-61
2022/09/21 02:34:38;;;;;;;24.45;10.23;;;;;;;;;;3384271;42;20094;-61
2022/09/21 02:37:18;;;;;;;24.63;10.23;;;;;;;;;;3393495;42;20094;-61
2022/09/21 02:39:52;;;;;;;23.95;9.77;;;;;;;;;;3393391;42;20078;-58
2022/09/21 02:42:32;;;;;;;25.20;9.63;;;;;;;;;;3382483;42;20130;-61
2022/09/21 02:45:14;;;;;;;30.60;9.85;;;;;;;;;;3392956;42;20104;-58
2022/09/21 02:48:07;;;;;;;23.92;9.70;;;;;;;;;;3382251;42;20088;-58
2022/09/21 02:51:01;;;;;;;25.07;9.40;;;;;;;;;;3383468;42;20661;-59
2022/09/21 02:53:29;;;;;;;19.58;8.45;;;;;;;;;;3384266;42;20147;-59
2022/09/21 02:55:56;;;;;;;20.20;8.60;;;;;;;;;;3384182;42;20098;-58
2022/09/21 02:58:23;;;;;;;17.40;8.40;;;;;;;;;;3374470;42;20090;-62
2022/09/21 03:00:49;;;;;;;19.00;8.05;;;;;;;;;;3376438;42;20083;-59
2022/09/21 03:03:16;;;;;;;16.40;8.03;;;;;;;;;;3393318;42;20093;-60
2022/09/21 03:05:44;;;;;;;20.67;8.02;;;;;;;;;;3375288;42;20592;-59
2022/09/21 03:08:10;;;;;;;20.38;8.25;;;;;;;;;;3383885;42;20537;-57
2022/09/21 03:10:38;;;;;;;27.65;8.90;;;;;;;;;;3393722;42;20166;-58
2022/09/21 03:13:06;;;;;;;24.03;8.10;;;;;;;;;;3397102;42;20094;-57
2022/09/21 03:15:32;;;;;;;20.73;7.78;;;;;;;;;;3393634;42;20159;-61
2022/09/21 03:17:58;;;;;;;17.83;8.30;;;;;;;;;;3398256;42;20117;-59
2022/09/21 03:20:24;;;;;;;14.95;7.70;;;;;;;;;;3393085;42;20606;-60
2022/09/21 03:22:50;;;;;;;14.27;7.80;;;;;;;;;;3392871;42;20090;-59
2022/09/21 03:25:16;;;;;;;16.95;8.18;;;;;;;;;;3392702;42;20098;-60
2022/09/21 03:27:42;;;;;;;19.17;8.35;;;;;;;;;;3392764;42;20156;-58
2022/09/21 03:30:09;;;;;;;16.48;8.52;;;;;;;;;;3392718;42;20092;-58
2022/09/21 03:32:35;;;;;;;15.30;8.23;;;;;;;;;;3392741;42;20142;-59
2022/09/21 03:35:01;;;;;;;14.32;7.57;;;;;;;;;;3392921;42;20193;-59
2022/09/21 03:37:27;;;;;;;15.10;8.48;;;;;;;;;;3392278;42;20082;-60
2022/09/21 03:39:53;;;;;;;18.35;8.23;;;;;;;;;;3383163;42;20155;-58
2022/09/21 03:42:19;;;;;;;18.23;7.93;;;;;;;;;;3384715;42;20112;-60
2022/09/21 03:44:45;;;;;;;16.15;7.75;;;;;;;;;;3381736;42;20315;-61
2022/09/21 03:47:11;;;;;;;17.73;8.25;;;;;;;;;;3391084;42;20074;-57
2022/09/21 03:49:37;;;;;;;16.77;7.55;;;;;;;;;;3377867;42;20100;-61
2022/09/21 03:52:03;;;;;;;17.57;8.20;;;;;;;;;;3382252;42;20102;-59
2022/09/21 03:54:29;;;;;;;18.42;7.93;;;;;;;;;;3394845;42;20098;-59
2022/09/21 03:56:55;;;;;;;15.05;7.80;;;;;;;;;;3384773;42;20632;-61
2022/09/21 03:59:21;;;;;;;16.80;7.72;;;;;;;;;;3394385;42;20584;-58
2022/09/21 04:01:47;;;;;;;15.77;7.67;;;;;;;;;;3382890;42;20091;-60
2022/09/21 04:04:15;;;;;;;15.63;7.95;;;;;;;;;;3394287;42;20090;-56
2022/09/21 04:06:45;;;;;;;16.38;7.85;;;;;;;;;;3394211;42;20101;-59
2022/09/21 04:09:11;;;;;;;15.20;7.20;;;;;;;;;;3394430;42;20192;-60
2022/09/21 04:11:38;;;;;;;14.65;7.50;;;;;;;;;;3394329;42;20144;-58
2022/09/21 04:14:04;;;;;;;15.23;7.77;;;;;;;;;;3393982;42;20159;-59
2022/09/21 04:16:30;;;;;;;16.00;7.53;;;;;;;;;;3394231;42;20086;-61
2022/09/21 04:18:56;;;;;;;14.10;7.72;;;;;;;;;;3394025;42;20106;-56
2022/09/21 04:21:22;;;;;;;14.63;7.30;;;;;;;;;;3394139;42;20094;-59
2022/09/21 04:23:48;;;;;;;14.17;7.13;;;;;;;;;;3394019;42;20204;-59
2022/09/21 04:26:23;;;;;;;13.60;7.05;;;;;;;;;;3393899;42;20535;-58
2022/09/21 04:28:49;;;;;;;13.20;6.97;;;;;;;;;;3383376;42;20091;-58
2022/09/21 04:31:15;;;;;;;14.70;7.30;;;;;;;;;;3384993;42;20116;-58
2022/09/21 04:33:41;;;;;;;13.52;7.50;;;;;;;;;;3393979;42;20078;-59
2022/09/21 04:36:07;;;;;;;14.07;7.17;;;;;;;;;;3394041;42;20163;-60
2022/09/21 04:38:33;;;;;;;13.25;7.13;;;;;;;;;;3386550;42;20142;-59
2022/09/21 04:40:59;;;;;;;13.30;7.50;;;;;;;;;;3394300;42;20086;-59
2022/09/21 04:43:25;;;;;;;13.93;7.67;;;;;;;;;;3394061;42;20106;-59
2022/09/21 04:45:51;;;;;;;13.82;7.50;;;;;;;;;;3384318;42;20099;-57
2022/09/21 04:48:17;;;;;;;15.70;7.80;;;;;;;;;;3393093;42;20090;-59
2022/09/21 04:50:47;;;;;;;15.02;7.30;;;;;;;;;;3393999;42;20120;-61
2022/09/21 04:53:12;;;;;;;13.50;7.77;;;;;;;;;;3393535;42;20102;-59
2022/09/21 04:55:39;;;;;;;15.18;7.05;;;;;;;;;;3394079;42;20177;-59
2022/09/21 04:58:05;;;;;;;16.25;7.13;;;;;;;;;;3393982;42;20078;-58
2022/09/21 05:00:30;;;;;;;14.40;7.28;;;;;;;;;;3394158;42;20160;-61
2022/09/21 05:02:57;;;;;;;12.37;6.83;;;;;;;;;;3394837;42;20181;-59
2022/09/21 05:05:23;;;;;;;14.73;7.40;;;;;;;;;;3393761;42;20680;-60
2022/09/21 05:07:49;;;;;;;13.90;7.55;;;;;;;;;;3393809;42;20628;-59
2022/09/21 05:10:15;;;;;;;13.88;7.03;;;;;;;;;;3393990;42;20078;-61
2022/09/21 05:12:42;;;;;;;14.07;7.17;;;;;;;;;;3384985;42;20500;-55
2022/09/21 05:15:10;;;;;;;14.82;7.13;;;;;;;;;;3393660;42;20102;-59
2022/09/21 05:17:36;;;;;;;13.18;7.22;;;;;;;;;;3393738;42;20090;-60
2022/09/21 05:20:03;;;;;;;13.98;7.25;;;;;;;;;;3384725;42;20094;-62
2022/09/21 05:22:29;;;;;;;14.38;7.88;;;;;;;;;;3384868;42;20670;-58
2022/09/21 05:24:54;;;;;;;14.90;7.83;;;;;;;;;;3393548;42;20083;-57
2022/09/21 05:27:20;;;;;;;18.20;7.70;;;;;;;;;;3393354;42;20101;-58
2022/09/21 05:29:47;;;;;;;17.90;7.80;;;;;;;;;;3393687;42;20091;-57
2022/09/21 05:32:24;;;;;;;15.88;7.68;;;;;;;;;;3393917;42;20140;-57
2022/09/21 05:35:06;;;;;;;15.70;7.77;;;;;;;;;;3382350;42;20113;-56
2022/09/21 05:37:43;;;;;;;14.57;7.45;;;;;;;;;;3384266;42;20094;-57
2022/09/21 05:40:09;;;;;;;16.15;8.45;;;;;;;;;;3372472;42;20130;-57
2022/09/21 05:42:35;;;;;;;16.08;8.10;;;;;;;;;;3393203;42;20601;-60
2022/09/21 05:45:02;;;;;;;13.43;7.78;;;;;;;;;;3384388;42;20082;-59
2022/09/21 05:47:51;;;;;;;14.53;7.40;;;;;;;;;;3393765;42;20101;-57
2022/09/21 05:50:56;;;;;;;14.05;7.38;;;;;;;;;;3386459;42;20110;-59
2022/09/21 05:53:40;;;;;;;19.30;8.10;;;;;;;;;;3392722;42;20090;-57
2022/09/21 05:56:17;;;;;;;15.80;7.82;;;;;;;;;;3392404;42;20113;-59
2022/09/21 05:59:00;;;;;;;15.18;7.25;;;;;;;;;;3381617;42;20102;-59
2022/09/21 06:01:32;;;;;;;16.13;7.67;;;;;;;;;;3393860;42;20557;-59
2022/09/21 06:03:58;;;;;;;16.60;7.20;;;;;;;;;;3392987;42;20489;-60
2022/09/21 06:06:24;;;;;;;15.88;7.78;;;;;;;;;;3383314;42;20075;-59
2022/09/21 06:08:50;;;;;;;14.98;7.70;;;;;;;;;;3378274;42;20168;-57
2022/09/21 06:11:17;;;;;;;18.92;7.75;;;;;;;;;;3393191;42;20093;-60
2022/09/21 06:13:42;;;;;;;18.60;7.97;;;;;;;;;;3393056;42;20090;-60
2022/09/21 06:16:08;;;;;;;15.85;7.80;;;;;;;;;;3382995;42;20105;-60
2022/09/21 06:18:38;;;;;;;13.40;7.50;;;;;;;;;;3383497;42;20618;-59
2022/09/21 06:21:05;;;;;;;17.48;7.95;;;;;;;;;;3393700;42;20175;-59
2022/09/21 06:23:31;;;;;;;14.45;7.25;;;;;;;;;;3395803;42;20629;-60
2022/09/21 06:25:57;;;;;;;13.60;7.47;;;;;;;;;;3393010;42;20095;-59
2022/09/21 06:28:23;;;;;;;14.75;7.28;;;;;;;;;;3392291;42;20125;-61
2022/09/21 06:30:50;;;;;;;13.88;7.55;;;;;;;;;;3392688;42;20074;-58
2022/09/21 06:33:19;;;;;;;15.82;7.68;;;;;;;;;;3392748;42;20790;-59
2022/09/21 06:35:58;;;;;;;17.07;7.50;;;;;;;;;;3393280;42;20093;-61
2022/09/21 06:38:26;;;;;;;15.57;7.10;;;;;;;;;;3384221;42;20119;-58
2022/09/21 06:40:52;;;;;;;12.68;6.47;;;;;;;;;;3393230;42;20160;-60
2022/09/21 06:43:18;;;;;;;11.85;6.25;;;;;;;;;;3392339;42;20141;-58
2022/09/21 06:45:51;;;;;;;13.40;6.60;;;;;;;;;;3392645;42;20082;-59
2022/09/21 06:48:17;;;;;;;10.40;5.80;;;;;;;;;;3384700;42;20106;-59
2022/09/21 06:50:42;;;;;;;12.32;6.40;;;;;;;;;;3384406;42;20094;-60
2022/09/21 06:53:08;;;;;;;12.48;6.20;;;;;;;;;;3392886;42;20117;-59
2022/09/21 06:55:34;;;;;;;11.75;5.63;;;;;;;;;;3392896;42;20090;-60
2022/09/21 06:58:04;;;;;;;11.67;5.13;;;;;;;;;;3392366;42;20083;-56
2022/09/21 07:00:30;;;;;;;12.45;5.45;;;;;;;;;;3392291;42;20094;-58
2022/09/21 07:02:56;;;;;;;11.18;5.82;;;;;;;;;;3392326;42;20212;-59
2022/09/21 07:05:22;;;;;;;13.30;5.60;;;;;;;;;;3394428;42;20082;-61
2022/09/21 07:07:48;;;;;;;13.43;5.87;;;;;;;;;;3386594;42;20090;-58
2022/09/21 07:10:14;;;;;;;9.85;5.13;;;;;;;;;;3396966;42;20160;-56
2022/09/21 07:12:41;;;;;;;11.55;4.60;;;;;;;;;;3397809;42;20579;-60
2022/09/21 07:15:09;;;;;;;12.25;4.90;;;;;;;;;;3395117;42;20117;-58
2022/09/21 07:17:37;;;;;;;13.80;4.70;;;;;;;;;;3395603;42;20086;-60
2022/09/21 07:20:03;;;;;;;11.45;4.95;;;;;;;;;;3393525;42;20101;-58
2022/09/21 07:22:33;;;;;;;12.65;5.47;;;;;;;;;;3395740;42;20104;-58
2022/09/21 07:24:59;;;;;;;13.10;5.30;;;;;;;;;;3392132;42;20091;-56
2022/09/21 07:27:25;;;;;;;11.93;4.70;;;;;;;;;;3388443;42;20098;-57
2022/09/21 07:29:51;;;;;;;12.00;4.30;;;;;;;;;;3395314;42;20168;-58
2022/09/21 07:32:17;;;;;;;13.73;4.13;;;;;;;;;;3397800;42;20142;-58
2022/09/21 07:34:44;;;;;;;14.00;5.53;;;;;;;;;;3395262;42;20079;-58
2022/09/21 07:37:10;;;;;;;13.95;4.45;;;;;;;;;;3398408;42;20595;-58
2022/09/21 07:39:37;;;;;;;11.30;4.55;;;;;;;;;;3386107;42;20074;-57
2022/09/21 07:42:04;;;;;;;14.03;4.87;;;;;;;;;;3395922;42;20171;-57
2022/09/21 07:44:30;;;;;;;11.52;4.63;;;;;;;;;;3395215;42;20575;-60
2022/09/21 07:46:56;;;;;;;15.95;4.93;;;;;;;;;;3388609;42;20600;-61
2022/09/21 07:49:22;;;;;;;15.40;4.22;;;;;;;;;;3392365;42;20094;-58
2022/09/21 07:51:48;;;;;;;11.97;4.50;;;;;;;;;;3392518;42;20512;-60
2022/09/21 07:54:14;;;;;;;13.13;4.25;;;;;;;;;;3383374;42;20090;-58
2022/09/21 07:56:41;;;;;;;14.27;4.30;;;;;;;;;;3392249;42;20305;-59
2022/09/21 07:59:07;;;;;;;12.68;4.18;;;;;;;;;;3392402;42;20171;-57
2022/09/21 08:01:37;;;;;;;10.43;3.97;;;;;;;;;;3381977;42;20095;-59
2022/09/21 08:04:06;;;;;;;12.32;3.45;;;;;;;;;;3380701;42;20139;-59
2022/09/21 08:06:34;;;;;;;9.30;3.65;;;;;;;;;;3392295;42;20588;-58
2022/09/21 08:09:03;;;;;;;12.25;3.60;;;;;;;;;;3392488;42;20461;-58
2022/09/21 08:11:29;;;;;;;10.02;3.67;;;;;;;;;;3383130;42;20083;-59
2022/09/21 08:13:57;;;;;;;11.13;4.20;;;;;;;;;;3392530;42;20105;-58
2022/09/21 08:16:24;;;;;;;11.32;3.85;;;;;;;;;;3394518;42;20708;-58
2022/09/21 08:18:50;;;;;;;11.95;4.07;;;;;;;;;;3388532;42;20090;-59
2022/09/21 08:21:16;;;;;;;14.00;4.28;;;;;;;;;;3387871;42;20140;-58
2022/09/21 08:23:42;;;;;;;9.60;3.67;;;;;;;;;;3397070;42;20086;-59
2022/09/21 08:26:17;;;;;;;11.07;3.93;;;;;;;;;;3395363;42;20098;-57
2022/09/21 08:28:50;;;;;;;12.32;3.92;;;;;;;;;;3396605;42;20100;-58
2022/09/21 08:31:18;;;;;;;9.43;3.33;;;;;;;;;;3393133;42;20159;-58
2022/09/21 08:33:44;;;;;;;9.88;3.53;;;;;;;;;;3382077;42;20086;-58
2022/09/21 08:36:10;;;;;;;9.35;3.10;;;;;;;;;;3392427;42;20109;-59
2022/09/21 08:38:37;;;;;;;13.37;3.73;;;;;;;;;;3392573;42;20108;-58
2022/09/21 08:41:13;;;;;;;7.78;2.80;;;;;;;;;;3385154;42;20094;-59
2022/09/21 08:43:43;;;;;;;8.85;3.40;;;;;;;;;;3391839;42;20098;-59
2022/09/21 08:46:15;;;;;;;9.18;3.20;;;;;;;;;;3385207;42;20553;-59
2022/09/21 08:48:45;;;;;;;9.55;3.28;;;;;;;;;;3386012;42;20654;-59
2022/09/21 08:51:14;;;;;;;7.70;2.90;;;;;;;;;;3384425;42;20099;-60
2022/09/21 08:53:44;;;;;;;11.63;3.17;;;;;;;;;;3394191;42;20102;-59
2022/09/21 08:56:11;;;;;;;8.73;3.22;;;;;;;;;;3379733;42;20197;-59
2022/09/21 08:58:39;;;;;;;10.10;3.35;;;;;;;;;;3370294;42;20161;-60
2022/09/21 09:01:21;;;;;;;10.75;2.90;;;;;;;;;;3366007;42;20178;-60
2022/09/21 09:04:18;;;;;;;8.30;2.67;;;;;;;;;;3376132;42;20184;-59
2022/09/21 09:07:06;;;;;;;6.90;2.50;;;;;;;;;;3372086;42;20123;-59
2022/09/21 09:09:39;;;;;;;8.02;2.42;;;;;;;;;;3376406;42;20235;-62
2022/09/21 09:12:23;;;;;;;7.68;2.25;;;;;;;;;;3374841;42;20166;-60
2022/09/21 09:15:38;;;;;;;7.53;2.10;;;;;;;;;;3379067;42;20099;-60
2022/09/21 09:18:23;;;;;;;8.53;2.00;;;;;;;;;;3358751;42;20080;-60
2022/09/21 09:20:57;;;;;;;6.10;1.80;;;;;;;;;;3374753;42;20099;-59
2022/09/21 09:23:28;;;;;;;8.00;2.15;;;;;;;;;;3376321;42;20080;-59
2022/09/21 09:26:09;;;;;;;9.35;2.10;;;;;;;;;;3380520;42;20101;-60
2022/09/21 09:28:48;;;;;;;7.32;2.03;;;;;;;;;;3372946;42;20094;-58
2022/09/21 09:31:26;;;;;;;8.23;1.80;;;;;;;;;;3368296;42;20099;-61
2022/09/21 09:34:11;;;;;;;7.25;2.25;;;;;;;;;;3377781;42;20167;-64
2022/09/21 09:36:39;;;;;;;6.88;2.20;;;;;;;;;;3373842;42;20107;-58
2022/09/21 09:39:14;;;;;;;6.53;2.10;;;;;;;;;;3363959;42;20084;-59
2022/09/21 09:42:01;;;;;;;11.77;2.20;;;;;;;;;;3378768;42;20161;-59
2022/09/21 09:45:19;;;;;;;7.53;2.10;;;;;;;;;;3381737;42;20087;-59
2022/09/21 09:47:51;;;;;;;8.25;2.10;;;;;;;;;;3358514;42;20695;-59
2022/09/21 09:50:30;;;;;;;8.80;2.78;;;;;;;;;;3351457;42;20179;-60
2022/09/21 09:53:03;;;;;;;7.80;2.60;;;;;;;;;;3366427;42;20187;-60
2022/09/21 09:55:42;;;;;;;8.60;2.30;;;;;;;;;;3371231;42;20130;-57
2022/09/21 09:58:16;;;;;;;7.30;2.60;;;;;;;;;;3378196;42;20110;-62
2022/09/21 10:00:42;;;;;;;8.23;2.50;;;;;;;;;;3381043;42;20093;-60
2022/09/21 10:03:17;;;;;;;8.80;2.42;;;;;;;;;;3372908;42;20095;-60
2022/09/21 10:05:43;;;;;;;8.00;2.70;;;;;;;;;;3380560;42;20165;-61
2022/09/21 10:08:35;;;;;;;8.60;2.60;;;;;;;;;;3379670;42;20557;-61
2022/09/21 10:11:02;;;;;;;6.70;2.70;;;;;;;;;;3379226;42;20536;-59
2022/09/21 10:13:29;;;;;;;8.20;3.00;;;;;;;;;;3377851;42;20099;-56
2022/09/21 10:16:04;;;;;;;9.48;3.00;;;;;;;;;;3376492;42;20091;-62
2022/09/21 10:18:48;;;;;;;10.98;2.88;;;;;;;;;;3378776;42;20088;-59
2022/09/21 10:21:32;;;;;;;10.55;3.05;;;;;;;;;;3375029;42;20088;-60
2022/09/21 10:24:00;;;;;;;9.57;3.40;;;;;;;;;;3381854;42;20152;-60
2022/09/21 10:26:40;;;;;;;10.48;3.40;;;;;;;;;;3369519;42;20088;-59
2022/09/21 10:29:21;;;;;;;7.93;3.33;;;;;;;;;;3375440;42;20119;-61
2022/09/21 10:31:56;;;;;;;9.38;3.55;;;;;;;;;;3379969;42;20206;-61
2022/09/21 10:34:22;;;;;;;14.43;4.13;;;;;;;;;;3374301;42;20083;-61
2022/09/21 10:36:50;;;;;;;10.33;3.90;;;;;;;;;;3379773;42;20091;-61
2022/09/21 10:39:23;;;;;;;11.02;4.30;;;;;;;;;;3382424;42;20659;-59
2022/09/21 10:41:52;;;;;;;8.70;4.00;;;;;;;;;;3376388;42;20087;-58
2022/09/21 10:44:20;;;;;;;10.35;4.03;;;;;;;;;;3377173;42;20090;-60
2022/09/21 10:46:46;;;;;;;13.00;4.32;;;;;;;;;;3375014;42;20581;-61
2022/09/21 10:49:16;;;;;;;12.33;4.23;;;;;;;;;;3382108;42;20139;-60
2022/09/21 10:51:43;;;;;;;12.52;5.50;;;;;;;;;;3376861;42;20087;-58
2022/09/21 10:54:10;;;;;;;13.82;5.45;;;;;;;;;;3376373;42;20639;-60
2022/09/21 10:56:36;;;;;;;11.18;4.72;;;;;;;;;;3382409;42;20109;-59
2022/09/21 10:59:25;;;;;;;12.30;4.35;;;;;;;;;;3377267;42;20545;-61
2022/09/21 11:01:52;;;;;;;9.10;4.00;;;;;;;;;;3376273;42;20090;-59
2022/09/21 11:04:49;;;;;;;9.95;4.05;;;;;;;;;;3379320;42;20088;-56
2022/09/21 11:07:38;;;;;;;12.55;4.05;;;;;;;;;;3375461;42;20106;-60
2022/09/21 11:10:19;;;;;;;12.05;4.00;;;;;;;;;;3381163;42;20505;-60
2022/09/21 11:13:22;;;;;;;8.95;3.67;;;;;;;;;;3381172;42;20154;-59
2022/09/21 11:15:58;;;;;;;10.40;3.53;;;;;;;;;;3380715;42;20184;-62
2022/09/21 11:18:43;;;;;;;12.18;3.80;;;;;;;;;;3375210;42;20092;-61
2022/09/21 11:21:19;;;;;;;8.93;3.50;;;;;;;;;;3376765;42;20126;-59
2022/09/21 11:23:52;;;;;;;8.60;3.13;;;;;;;;;;3377884;42;20092;-60
2022/09/21 11:26:28;;;;;;;9.43;3.00;;;;;;;;;;3382021;42;20099;-60
2022/09/21 11:29:09;;;;;;;9.47;3.47;;;;;;;;;;3377755;42;20547;-60
2022/09/21 11:32:00;;;;;;;12.60;3.75;;;;;;;;;;3379434;42;20535;-60
2022/09/21 11:34:50;;;;;;;10.50;3.60;;;;;;;;;;3375302;42;20215;-58
2022/09/21 11:37:19;;;;;;;11.25;4.10;;;;;;;;;;3377931;42;20094;-60
2022/09/21 11:40:11;;;;;;;12.18;4.10;;;;;;;;;;3376812;42;20155;-58
2022/09/21 11:42:49;;;;;;;10.90;4.30;;;;;;;;;;3371592;42;20137;-59
2022/09/21 11:45:50;;;;;;;10.13;3.60;;;;;;;;;;3377724;42;20091;-58
2022/09/21 11:48:20;;;;;;;12.38;3.97;;;;;;;;;;3376556;42;20508;-59
2022/09/21 11:51:07;;;;;;;12.60;3.50;;;;;;;;;;3374516;42;20505;-59
2022/09/21 11:53:52;;;;;;;7.63;3.90;;;;;;;;;;3376960;42;20520;-59
2022/09/21 11:56:35;;;;;;;10.93;3.90;;;;;;;;;;3391460;42;20579;-61
2022/09/21 11:59:16;;;;;;;14.60;3.88;;;;;;;;;;3392378;42;20529;-58
2022/09/21 12:02:14;;;;;;;11.95;3.83;;;;;;;;;;3392379;42;20107;-60
2022/09/21 12:05:09;;;;;;;9.95;3.85;;;;;;;;;;3375608;42;20133;-60
2022/09/21 12:07:51;;;;;;;10.82;3.97;;;;;;;;;;3390871;42;20091;-60
2022/09/21 12:10:52;;;;;;;12.17;3.60;;;;;;;;;;3383999;42;20398;-60
2022/09/21 12:13:21;;;;;;;9.43;3.60;;;;;;;;;;3392470;42;20098;-60
2022/09/21 12:15:56;;;;;;;11.48;3.55;;;;;;;;;;3393313;42;20082;-61
2022/09/21 12:18:46;;;;;;;10.45;3.90;;;;;;;;;;3394217;42;20492;-58
2022/09/21 12:21:19;;;;;;;12.75;3.80;;;;;;;;;;3379865;42;20549;-59
2022/09/21 12:23:55;;;;;;;15.07;4.07;;;;;;;;;;3372989;42;20222;-58
2022/09/21 12:26:41;;;;;;;12.23;4.07;;;;;;;;;;3393929;42;20126;-60
2022/09/21 12:29:29;;;;;;;12.07;3.85;;;;;;;;;;3384840;42;20148;-59
2022/09/21 12:32:03;;;;;;;9.35;4.25;;;;;;;;;;3378207;42;20569;-60
2022/09/21 12:34:34;;;;;;;12.13;3.92;;;;;;;;;;3384783;42;20154;-59
2022/09/21 12:37:00;;;;;;;9.50;3.90;;;;;;;;;;3376302;42;20102;-62
2022/09/21 12:39:57;;;;;;;11.35;3.83;;;;;;;;;;3392660;42;20450;-59
2022/09/21 12:42:39;;;;;;;11.80;3.53;;;;;;;;;;3382028;42;20097;-59
2022/09/21 12:45:14;;;;;;;8.82;3.25;;;;;;;;;;3394843;42;20082;-59
2022/09/21 12:47:49;;;;;;;9.20;3.30;;;;;;;;;;3394434;42;20146;-61
2022/09/21 12:50:22;;;;;;;8.48;2.92;;;;;;;;;;3393513;42;20087;-59
2022/09/21 12:52:49;;;;;;;14.15;3.75;;;;;;;;;;3376673;42;20087;-58
2022/09/21 12:55:46;;;;;;;9.88;3.22;;;;;;;;;;3375817;42;20142;-60
2022/09/21 12:58:53;;;;;;;10.85;2.83;;;;;;;;;;3381411;42;20160;-60
2022/09/21 13:01:25;;;;;;;11.53;2.80;;;;;;;;;;3373217;42;20095;-60
2022/09/21 13:04:28;;;;;;;10.40;3.33;;;;;;;;;;3374574;42;20091;-57
2022/09/21 13:07:22;;;;;;;9.35;3.42;;;;;;;;;;3382004;42;20145;-60
2022/09/21 13:09:49;;;;;;;9.40;3.50;;;;;;;;;;3392281;42;20146;-58
2022/09/21 13:12:16;;;;;;;11.02;3.72;;;;;;;;;;3393423;42;20104;-60
2022/09/21 13:14:45;;;;;;;14.33;3.57;;;;;;;;;;3394847;42;20083;-62
2022/09/21 13:17:20;;;;;;;10.20;3.50;;;;;;;;;;3393663;42;20125;-60
2022/09/21 13:19:58;;;;;;;12.80;3.92;;;;;;;;;;3384755;42;20105;-60
2022/09/21 13:22:25;;;;;;;10.25;4.13;;;;;;;;;;3383147;42;20105;-58
2022/09/21 13:25:14;;;;;;;8.85;3.45;;;;;;;;;;3378700;42;20141;-58
2022/09/21 13:28:12;;;;;;;10.37;3.90;;;;;;;;;;3390812;42;20129;-59
2022/09/21 13:30:43;;;;;;;12.27;4.03;;;;;;;;;;3385246;42;20170;-59
2022/09/21 13:33:18;;;;;;;12.90;3.92;;;;;;;;;;3377441;42;20109;-60
2022/09/21 13:35:50;;;;;;;14.52;4.13;;;;;;;;;;3394342;42;20079;-59
2022/09/21 13:38:25;;;;;;;11.82;3.80;;;;;;;;;;3393165;42;20086;-60
2022/09/21 13:41:16;;;;;;;9.83;3.90;;;;;;;;;;3384471;42;20097;-60
2022/09/21 13:43:57;;;;;;;9.38;3.70;;;;;;;;;;3393369;42;20102;-60
2022/09/21 13:46:35;;;;;;;10.50;3.97;;;;;;;;;;3393379;42;20603;-59
2022/09/21 13:49:16;;;;;;;12.05;3.75;;;;;;;;;;3392920;42;20145;-58
2022/09/21 13:52:02;;;;;;;9.25;3.55;;;;;;;;;;3382751;42;20094;-59
2022/09/21 13:54:43;;;;;;;11.73;4.67;;;;;;;;;;3393000;42;20098;-60
2022/09/21 13:57:13;;;;;;;14.02;3.75;;;;;;;;;;3393289;42;20101;-59
2022/09/21 13:59:40;;;;;;;11.70;4.00;;;;;;;;;;3394473;42;20760;-59
2022/09/21 14:02:33;;;;;;;12.63;4.10;;;;;;;;;;3376997;42;20608;-59
2022/09/21 14:05:30;;;;;;;9.93;4.50;;;;;;;;;;3384907;42;20178;-59
2022/09/21 14:08:11;;;;;;;10.87;3.70;;;;;;;;;;3376998;42;20117;-59
2022/09/21 14:10:37;;;;;;;11.50;3.90;;;;;;;;;;3384507;42;20528;-60
2022/09/21 14:13:15;;;;;;;10.20;3.63;;;;;;;;;;3393801;42;20082;-60
2022/09/21 14:15:45;;;;;;;12.38;4.13;;;;;;;;;;3382832;42;20102;-61
2022/09/21 14:18:17;;;;;;;11.00;3.95;;;;;;;;;;3372040;42;20232;-60
2022/09/21 14:21:06;;;;;;;11.97;4.27;;;;;;;;;;3391578;42;20220;-61
2022/09/21 14:23:34;;;;;;;12.95;5.22;;;;;;;;;;3393914;42;20138;-61
2022/09/21 14:26:01;;;;;;;15.05;3.97;;;;;;;;;;3375944;42;20505;-60
2022/09/21 14:28:33;;;;;;;10.02;4.15;;;;;;;;;;3376460;42;20504;-61
2022/09/21 14:31:07;;;;;;;12.20;4.10;;;;;;;;;;3393687;42;20234;-60
2022/09/21 14:33:45;;;;;;;12.43;4.57;;;;;;;;;;3372409;42;20095;-59
2022/09/21 14:36:16;;;;;;;13.85;4.80;;;;;;;;;;3390414;42;20256;-61
2022/09/21 14:38:49;;;;;;;12.98;4.90;;;;;;;;;;3382387;42;20130;-60
2022/09/21 14:41:19;;;;;;;12.05;4.75;;;;;;;;;;3378613;42;20149;-59
2022/09/21 14:43:51;;;;;;;12.48;5.07;;;;;;;;;;3383886;42;20141;-60
2022/09/21 14:46:30;;;;;;;12.20;5.33;;;;;;;;;;3382475;42;20137;-60
2022/09/21 14:49:23;;;;;;;10.98;5.53;;;;;;;;;;3394040;42;20097;-60
2022/09/21 14:51:55;;;;;;;14.85;5.80;;;;;;;;;;3391315;42;20154;-59
2022/09/21 14:54:33;;;;;;;14.82;5.95;;;;;;;;;;3392653;42;20086;-61
2022/09/21 14:57:33;;;;;;;14.38;5.10;;;;;;;;;;3392813;42;20082;-61
2022/09/21 15:00:19;;;;;;;12.93;4.80;;;;;;;;;;3392980;42;20102;-60
2022/09/21 15:02:46;;;;;;;12.60;4.93;;;;;;;;;;3391813;42;20664;-60
2022/09/21 15:05:19;;;;;;;9.77;4.35;;;;;;;;;;3392731;42;20634;-60